Altoona, Florida
Current Conditions -  °F | °C
As of 2:53 PM on Friday 31 Oct 2014 (Local Time) from KLEE Reporting Station
Clear Clear  
Wind Chill: 77°   Ceiling: Unl
Heat Index: 78°   Visibility: 10mi
Dew Point: 47°   Wind: 7mph
Humidity: 34%   Direction: 310°NW
Pressure: 29.82"   Gusts: NA
Location:  28.97°N, 81.65°W
Report Text: KLEE 311853Z 31006KT 10SM CLR 25/08 A2982 RMK AO2 SLP096 T02500083
Loading
Personal Weather Stations






























Interactive Weather Map
Tropical Storm Tracking
New forecast layout! Learn more

10-Day Weather Forecast

Advertisements
Track Severe Weather on mobile